createdAt,value
2023-02-14T00:01:21.166Z,32.23
2023-02-14T00:04:00.510Z,26.70
2023-02-14T00:06:38.778Z,28.53
2023-02-14T00:09:19.165Z,24.50
2023-02-14T00:11:54.016Z,27.23
2023-02-14T00:14:47.592Z,27.47
2023-02-14T00:17:22.488Z,25.97
2023-02-14T00:19:57.337Z,26.93
2023-02-14T00:22:32.267Z,28.77
2023-02-14T00:25:07.478Z,31.93
2023-02-14T00:27:42.388Z,26.17
2023-02-14T00:30:18.379Z,32.63
2023-02-14T00:32:53.255Z,33.83
2023-02-14T00:35:28.165Z,27.90
2023-02-14T00:38:03.037Z,30.03
2023-02-14T00:40:37.958Z,29.60
2023-02-14T00:43:12.861Z,25.00
2023-02-14T00:45:47.888Z,31.33
2023-02-14T00:48:22.812Z,26.33
2023-02-14T00:50:58.091Z,29.70
2023-02-14T00:53:33.285Z,31.80
2023-02-14T00:56:08.693Z,29.60
2023-02-14T00:58:44.928Z,27.63
2023-02-14T01:01:20.351Z,25.93
2023-02-14T01:03:55.385Z,31.10
2023-02-14T01:06:30.413Z,27.57
2023-02-14T01:09:05.638Z,30.70
2023-02-14T01:11:41.099Z,30.67
2023-02-14T01:14:16.337Z,26.50
2023-02-14T01:16:51.289Z,28.33
2023-02-14T01:19:26.215Z,26.80
2023-02-14T01:22:01.194Z,25.20
2023-02-14T01:24:36.182Z,29.20
2023-02-14T01:27:11.114Z,24.77
2023-02-14T01:29:46.015Z,29.05
2023-02-14T01:32:21.904Z,31.60
2023-02-14T01:34:59.808Z,30.57
2023-02-14T01:37:34.842Z,28.88
2023-02-14T01:40:12.402Z,27.40
2023-02-14T01:42:47.250Z,29.50
2023-02-14T01:45:26.486Z,30.90
2023-02-14T01:48:01.397Z,28.85
2023-02-14T01:50:42.234Z,30.85
2023-02-14T01:53:25.117Z,28.70
2023-02-14T01:56:08.007Z,25.10
2023-02-14T01:58:48.101Z,30.50
2023-02-14T02:01:24.664Z,34.65
2023-02-14T02:04:10.415Z,29.98
2023-02-14T02:06:55.607Z,30.13
2023-02-14T02:09:45.264Z,28.67
2023-02-14T02:12:20.961Z,31.33
2023-02-14T02:14:58.364Z,26.30
2023-02-14T02:18:07.566Z,32.30
2023-02-14T02:21:32.096Z,28.38
2023-02-14T02:25:07.602Z,26.60
2023-02-14T02:27:45.257Z,34.13
2023-02-14T02:30:35.566Z,30.67
2023-02-14T02:33:46.779Z,31.30
2023-02-14T02:36:45.964Z,33.45
2023-02-14T02:39:54.174Z,29.48
2023-02-14T02:42:56.616Z,29.08
2023-02-14T02:46:24.121Z,32.03
2023-02-14T02:49:45.814Z,30.00
2023-02-14T02:53:03.855Z,31.27
2023-02-14T02:56:16.967Z,32.72
2023-02-14T02:59:02.581Z,28.55
2023-02-14T03:01:41.558Z,31.67
2023-02-14T03:04:36.634Z,28.48
2023-02-14T03:07:31.609Z,30.13
2023-02-14T03:10:16.862Z,33.33
2023-02-14T03:13:46.755Z,35.38
2023-02-14T03:16:36.066Z,34.55
2023-02-14T03:20:01.763Z,34.53
2023-02-14T03:22:57.889Z,35.20
2023-02-14T03:26:06.575Z,33.53
2023-02-14T03:28:54.564Z,38.60
2023-02-14T03:32:00.467Z,35.80
2023-02-14T03:35:10.892Z,40.40
2023-02-14T03:38:05.868Z,34.65
2023-02-14T03:40:49.477Z,33.00
2023-02-14T03:43:35.390Z,32.38
2023-02-14T03:46:33.214Z,32.20
2023-02-14T03:49:14.248Z,32.03
2023-02-14T03:51:55.026Z,30.05
2023-02-14T03:54:32.917Z,30.92
2023-02-14T03:57:26.007Z,27.50
2023-02-14T04:00:01.177Z,28.88
2023-02-14T04:03:00.842Z,31.95
2023-02-14T04:05:36.361Z,28.10
2023-02-14T04:08:12.262Z,31.50
2023-02-14T04:10:47.237Z,27.75
2023-02-14T04:13:22.481Z,35.65
2023-02-14T04:15:57.693Z,29.25
2023-02-14T04:18:51.598Z,29.52
2023-02-14T04:21:26.760Z,26.45
2023-02-14T04:24:01.686Z,25.13
2023-02-14T04:26:36.695Z,23.73
2023-02-14T04:29:11.628Z,29.90
2023-02-14T04:31:47.358Z,26.98
2023-02-14T04:34:22.530Z,26.60
2023-02-14T04:36:57.448Z,28.75
2023-02-14T04:39:32.820Z,29.27
2023-02-14T04:42:08.410Z,28.23
2023-02-14T04:44:43.455Z,30.88
2023-02-14T04:47:18.415Z,29.65
2023-02-14T04:49:53.314Z,22.92
2023-02-14T04:52:28.305Z,30.85
2023-02-14T04:55:04.855Z,28.95
2023-02-14T04:57:39.772Z,26.90
2023-02-14T05:00:15.403Z,25.38
2023-02-14T05:02:50.398Z,31.65
2023-02-14T05:05:25.321Z,29.10
2023-02-14T05:08:00.212Z,26.98
2023-02-14T05:10:35.162Z,26.60
2023-02-14T05:13:10.192Z,28.10
2023-02-14T05:15:46.350Z,30.30
2023-02-14T05:18:21.270Z,32.38
2023-02-14T05:20:56.272Z,28.20
2023-02-14T05:23:32.314Z,29.55
2023-02-14T05:26:08.467Z,30.50
2023-02-14T05:28:43.682Z,26.63
2023-02-14T05:31:18.823Z,27.35
2023-02-14T05:33:53.779Z,28.05
2023-02-14T05:36:28.734Z,28.73
2023-02-14T05:39:04.315Z,33.28
2023-02-14T05:44:13.242Z,31.63
2023-02-14T05:46:48.175Z,30.02
2023-02-14T05:49:23.119Z,33.80
2023-02-14T05:51:58.013Z,28.98
2023-02-14T05:54:33.019Z,30.52
2023-02-14T05:57:07.970Z,31.42
2023-02-14T05:59:43.197Z,26.75
2023-02-14T06:02:18.192Z,29.50
2023-02-14T06:04:53.367Z,27.15
2023-02-14T06:07:28.284Z,35.88
2023-02-14T06:10:03.652Z,35.85
2023-02-14T06:12:38.649Z,30.73
2023-02-14T06:15:13.623Z,32.63
2023-02-14T06:17:56.609Z,30.10
2023-02-14T06:20:31.763Z,31.80
2023-02-14T06:23:06.764Z,31.98
2023-02-14T06:25:41.757Z,30.38
2023-02-14T06:28:16.785Z,32.67
2023-02-14T06:30:52.140Z,28.85
2023-02-14T06:33:27.162Z,29.67
2023-02-14T06:36:02.215Z,29.73
2023-02-14T06:38:37.203Z,25.98
2023-02-14T06:41:12.461Z,26.70
2023-02-14T06:43:48.738Z,24.83
2023-02-14T06:46:24.281Z,32.17
2023-02-14T06:48:59.300Z,28.27
2023-02-14T06:51:34.234Z,27.23
2023-02-14T06:54:09.186Z,28.00
2023-02-14T06:56:44.204Z,27.88
2023-02-14T06:59:19.139Z,28.52
2023-02-14T07:01:54.249Z,30.65
2023-02-14T07:04:29.816Z,31.73
2023-02-14T07:07:05.468Z,28.52
2023-02-14T07:09:40.478Z,27.30
2023-02-14T07:12:15.488Z,29.95
2023-02-14T07:14:50.471Z,31.35
2023-02-14T07:17:25.421Z,30.38
2023-02-14T07:20:00.299Z,27.15
2023-02-14T07:22:36.489Z,28.75
2023-02-14T07:25:12.242Z,24.42
2023-02-14T07:27:47.220Z,30.52
2023-02-14T07:30:22.436Z,26.70
2023-02-14T07:32:58.425Z,32.78
2023-02-14T07:35:35.175Z,29.40
2023-02-14T07:38:10.082Z,30.13
2023-02-14T07:40:45.035Z,30.20
2023-02-14T07:43:20.275Z,28.38
2023-02-14T07:45:55.356Z,27.85
2023-02-14T07:48:31.973Z,26.48
2023-02-14T07:51:08.865Z,26.48
2023-02-14T07:53:44.042Z,27.13
2023-02-14T07:56:19.031Z,27.00
2023-02-14T07:58:53.996Z,23.70
2023-02-14T08:01:28.930Z,26.63
2023-02-14T08:04:04.012Z,30.20
2023-02-14T08:06:38.923Z,33.90
2023-02-14T08:09:24.617Z,30.88
2023-02-14T08:12:17.963Z,30.17
2023-02-14T08:14:52.955Z,32.78
2023-02-14T08:17:27.824Z,27.73
2023-02-14T08:20:02.723Z,29.77
2023-02-14T08:22:37.756Z,29.67
2023-02-14T08:25:12.747Z,28.80
2023-02-14T08:27:47.695Z,29.47
2023-02-14T08:30:23.345Z,28.20
2023-02-14T08:32:58.456Z,29.75
2023-02-14T08:35:33.846Z,28.30
2023-02-14T08:38:09.295Z,30.83
2023-02-14T08:40:44.267Z,32.03
2023-02-14T08:43:19.256Z,27.50
2023-02-14T08:45:54.388Z,30.23
2023-02-14T08:48:29.503Z,29.27
2023-02-14T08:51:09.961Z,33.20
2023-02-14T08:53:46.349Z,39.73
2023-02-14T08:56:22.670Z,27.63
2023-02-14T08:58:57.687Z,33.23
2023-02-14T09:01:32.984Z,31.03
2023-02-14T09:04:08.142Z,29.90
2023-02-14T09:06:43.114Z,35.50
2023-02-14T09:09:19.359Z,28.60
2023-02-14T09:11:56.136Z,31.87
2023-02-14T09:14:35.454Z,30.30
2023-02-14T09:17:12.061Z,25.23
2023-02-14T09:19:47.062Z,27.77
2023-02-14T09:22:22.111Z,30.37
2023-02-14T09:24:57.294Z,31.00
2023-02-14T09:27:32.524Z,33.47
2023-02-14T09:30:09.498Z,30.77
2023-02-14T09:32:44.602Z,32.07
2023-02-14T09:35:19.676Z,31.83
2023-02-14T09:38:13.968Z,30.97
2023-02-14T09:40:50.499Z,24.87
2023-02-14T09:43:41.837Z,29.73
2023-02-14T09:46:17.802Z,29.67
2023-02-14T09:48:54.483Z,30.57
2023-02-14T09:51:31.966Z,29.90
2023-02-14T09:54:14.918Z,29.80
2023-02-14T09:57:02.114Z,26.23
2023-02-14T09:59:44.095Z,27.63
2023-02-14T10:02:59.514Z,27.60
2023-02-14T10:05:55.175Z,28.97
2023-02-14T10:08:54.829Z,28.70
2023-02-14T10:11:30.162Z,27.10
2023-02-14T10:14:29.610Z,22.70
2023-02-14T10:17:22.025Z,29.13
2023-02-14T10:20:04.337Z,26.57
2023-02-14T10:22:46.705Z,25.90
2023-02-14T10:25:34.249Z,29.57
2023-02-14T10:28:16.657Z,26.77
2023-02-14T10:31:16.329Z,21.23
2023-02-14T10:34:20.512Z,25.03
2023-02-14T10:37:24.863Z,24.17
2023-02-14T10:40:27.366Z,23.03
2023-02-14T10:43:28.283Z,23.20
2023-02-14T10:46:33.430Z,26.03
2023-02-14T10:49:44.132Z,23.03
2023-02-14T10:52:42.791Z,20.67
2023-02-14T10:55:40.191Z,21.70
2023-02-14T10:58:20.132Z,20.97
2023-02-14T11:01:04.884Z,20.60
2023-02-14T11:03:55.328Z,21.67
2023-02-14T11:06:31.054Z,20.40
2023-02-14T11:09:05.941Z,18.70
2023-02-14T11:12:00.158Z,19.50
2023-02-14T11:14:38.152Z,18.50
2023-02-14T11:17:30.940Z,19.67
2023-02-14T11:20:30.299Z,18.83
2023-02-14T11:23:24.012Z,18.47
2023-02-14T11:26:00.804Z,18.80
2023-02-14T11:28:36.398Z,15.07
2023-02-14T11:31:11.443Z,15.27
2023-02-14T11:33:50.665Z,17.97
2023-02-14T11:36:26.554Z,17.50
2023-02-14T11:39:23.601Z,17.70
2023-02-14T11:42:05.688Z,15.60
2023-02-14T11:44:56.088Z,17.63
2023-02-14T11:47:42.958Z,19.80
2023-02-14T11:50:24.736Z,17.50
2023-02-14T11:53:00.159Z,17.10
2023-02-14T11:55:35.161Z,17.23
2023-02-14T11:58:37.301Z,16.13
2023-02-14T12:01:24.154Z,20.67
2023-02-14T12:04:03.954Z,19.40
2023-02-14T12:06:38.888Z,19.33
2023-02-14T12:09:26.868Z,18.80
2023-02-14T12:12:21.752Z,18.13
2023-02-14T12:15:37.614Z,17.30
2023-02-14T12:18:49.461Z,15.87
2023-02-14T12:21:51.894Z,19.30
2023-02-14T12:24:36.508Z,16.20
2023-02-14T12:27:35.518Z,17.03
2023-02-14T12:30:14.952Z,19.50
2023-02-14T12:32:59.126Z,17.13
2023-02-14T12:36:23.721Z,18.73
2023-02-14T12:39:36.917Z,18.60
2023-02-14T12:42:47.433Z,19.90
2023-02-14T12:45:49.081Z,18.63
2023-02-14T12:48:47.234Z,18.13
2023-02-14T12:51:55.466Z,17.63
2023-02-14T12:55:02.294Z,17.53
2023-02-14T12:58:02.877Z,16.97
2023-02-14T13:01:00.171Z,20.97
2023-02-14T13:04:25.905Z,20.27
2023-02-14T13:07:29.390Z,19.73
2023-02-14T13:10:10.853Z,23.23
2023-02-14T13:13:31.285Z,18.37
2023-02-14T13:16:33.600Z,18.93
2023-02-14T13:19:24.302Z,17.77
2023-02-14T13:22:01.361Z,16.53
2023-02-14T13:24:46.375Z,16.37
2023-02-14T13:27:30.198Z,16.33
2023-02-14T13:30:41.280Z,17.53
2023-02-14T13:33:27.275Z,16.70
2023-02-14T13:36:08.160Z,16.17
2023-02-14T13:41:41.774Z,15.40
2023-02-14T13:44:43.197Z,18.57
2023-02-14T13:47:27.399Z,16.93
2023-02-14T13:50:03.770Z,15.83
2023-02-14T13:52:47.962Z,14.77
2023-02-14T13:55:35.474Z,17.10
2023-02-14T13:58:21.689Z,18.70
2023-02-14T14:00:56.809Z,17.00
2023-02-14T14:03:31.598Z,15.73
2023-02-14T14:06:13.230Z,16.87
2023-02-14T14:08:52.068Z,15.07
2023-02-14T14:11:27.393Z,18.40
2023-02-14T14:14:29.602Z,15.40
2023-02-14T14:17:20.074Z,16.30
2023-02-14T14:19:55.115Z,16.50
2023-02-14T14:22:30.512Z,20.63
2023-02-14T14:25:10.797Z,17.07
2023-02-14T14:27:46.632Z,16.37
2023-02-14T14:30:32.959Z,17.20
2023-02-14T14:33:37.798Z,18.33
2023-02-14T14:36:22.800Z,17.13
2023-02-14T14:38:57.690Z,18.47
2023-02-14T14:41:33.264Z,16.67
2023-02-14T14:44:08.236Z,16.00
2023-02-14T14:46:43.328Z,15.63
2023-02-14T14:49:19.335Z,15.60
2023-02-14T14:51:56.999Z,15.73
2023-02-14T14:54:33.272Z,14.40
2023-02-14T14:57:16.253Z,18.23
2023-02-14T15:00:09.458Z,18.07
2023-02-14T15:03:12.077Z,18.10
2023-02-14T15:05:52.106Z,18.20
2023-02-14T15:08:32.966Z,15.97
2023-02-14T15:11:42.406Z,17.30
2023-02-14T15:14:22.040Z,15.20
2023-02-14T15:17:20.337Z,14.67
2023-02-14T15:20:00.357Z,18.60
2023-02-14T15:22:45.588Z,16.67
2023-02-14T15:25:31.685Z,17.30
2023-02-14T15:28:06.601Z,17.37
2023-02-14T15:30:44.145Z,16.00
2023-02-14T15:33:19.438Z,17.40
2023-02-14T15:35:55.060Z,15.80
2023-02-14T15:38:31.902Z,16.37
2023-02-14T15:41:07.687Z,20.50
2023-02-14T15:43:43.244Z,18.63
2023-02-14T15:46:28.371Z,17.20
2023-02-14T15:49:10.959Z,16.37
2023-02-14T15:51:49.086Z,19.33
2023-02-14T15:54:39.594Z,20.83
2023-02-14T15:57:25.142Z,19.13
2023-02-14T16:00:00.049Z,15.63
2023-02-14T16:02:40.664Z,16.10
2023-02-14T16:05:24.618Z,17.47
2023-02-14T16:08:06.354Z,19.40
2023-02-14T16:10:41.296Z,17.33
2023-02-14T16:13:20.649Z,19.03
2023-02-14T16:16:03.588Z,18.60
2023-02-14T16:18:58.814Z,19.20
2023-02-14T16:21:34.464Z,18.63
2023-02-14T16:24:10.856Z,19.63
2023-02-14T16:26:47.057Z,18.00
2023-02-14T16:29:22.630Z,18.90
2023-02-14T16:32:15.809Z,17.30
2023-02-14T16:34:51.568Z,17.03
2023-02-14T16:37:33.592Z,21.03
2023-02-14T16:40:14.257Z,21.03
2023-02-14T16:42:49.254Z,17.93
2023-02-14T16:45:24.163Z,20.60
2023-02-14T16:47:59.154Z,20.53
2023-02-14T16:50:37.474Z,20.03
2023-02-14T16:53:24.433Z,21.87
2023-02-14T16:55:59.351Z,21.60
2023-02-14T16:58:36.274Z,19.23
2023-02-14T17:01:11.271Z,20.07
2023-02-14T17:03:46.910Z,21.87
2023-02-14T17:06:27.594Z,23.30
2023-02-14T17:09:07.521Z,22.13
2023-02-14T17:11:48.324Z,18.70
2023-02-14T17:14:28.843Z,21.43
2023-02-14T17:17:04.334Z,27.10
2023-02-14T17:19:39.648Z,22.50
2023-02-14T17:22:15.015Z,20.93
2023-02-14T17:24:50.019Z,21.43
2023-02-14T17:27:25.006Z,24.20
2023-02-14T17:29:59.963Z,22.20
2023-02-14T17:32:35.443Z,24.63
2023-02-14T17:35:10.774Z,23.33
2023-02-14T17:37:45.710Z,23.00
2023-02-14T17:40:20.920Z,23.57
2023-02-14T17:42:56.123Z,25.53
2023-02-14T17:45:31.094Z,24.07
2023-02-14T17:48:06.510Z,23.20
2023-02-14T17:50:41.744Z,24.77
2023-02-14T17:53:18.013Z,28.07
2023-02-14T17:55:52.876Z,29.03
2023-02-14T17:58:27.797Z,25.47
2023-02-14T18:01:11.416Z,28.20
2023-02-14T18:03:46.673Z,26.33
2023-02-14T18:06:21.717Z,22.73
2023-02-14T18:08:59.378Z,26.37
2023-02-14T18:11:34.266Z,24.67
2023-02-14T18:14:09.746Z,23.53
2023-02-14T18:16:46.211Z,26.97
2023-02-14T18:19:21.130Z,25.50
2023-02-14T18:21:56.027Z,25.60
2023-02-14T18:24:30.994Z,27.13
2023-02-14T18:27:06.341Z,29.73
2023-02-14T18:29:41.449Z,29.97
2023-02-14T18:32:16.538Z,24.27
2023-02-14T18:34:52.450Z,29.40
2023-02-14T18:37:27.985Z,24.30
2023-02-14T18:40:03.188Z,28.63
2023-02-14T18:42:38.406Z,30.03
2023-02-14T18:45:13.581Z,29.77
2023-02-14T18:47:51.529Z,25.93
2023-02-14T18:50:29.926Z,32.67
2023-02-14T18:53:05.162Z,28.93
2023-02-14T18:55:40.360Z,30.03
2023-02-14T18:58:15.686Z,30.97
2023-02-14T19:00:50.893Z,31.13
2023-02-14T19:03:26.141Z,30.60
2023-02-14T19:06:01.830Z,29.07
2023-02-14T19:08:39.394Z,34.77
2023-02-14T19:11:22.129Z,32.37
2023-02-14T19:14:02.423Z,30.13
2023-02-14T19:16:53.252Z,27.83
2023-02-14T19:19:28.408Z,29.30
2023-02-14T19:22:03.618Z,30.53
2023-02-14T19:24:48.418Z,30.40
2023-02-14T19:27:25.534Z,34.10
2023-02-14T19:30:01.585Z,34.10
2023-02-14T19:32:39.848Z,30.30
2023-02-14T19:35:15.079Z,34.47
2023-02-14T19:37:53.865Z,30.37
2023-02-14T19:40:29.958Z,31.10
2023-02-14T19:43:07.775Z,33.10
2023-02-14T19:45:43.865Z,37.47
2023-02-14T19:48:21.302Z,34.47
2023-02-14T19:51:00.396Z,31.17
2023-02-14T19:53:36.838Z,29.90
2023-02-14T19:56:12.756Z,34.23
2023-02-14T19:58:49.239Z,32.63
2023-02-14T20:01:33.647Z,29.90
2023-02-14T20:04:24.327Z,32.97
2023-02-14T20:07:00.300Z,34.70
2023-02-14T20:09:39.843Z,32.67
2023-02-14T20:12:15.066Z,36.40
2023-02-14T20:14:54.292Z,32.63
2023-02-14T20:17:32.947Z,30.47
2023-02-14T20:20:13.297Z,26.80
2023-02-14T20:22:48.708Z,34.00
2023-02-14T20:25:23.700Z,36.40
2023-02-14T20:27:59.323Z,34.83
2023-02-14T20:30:34.727Z,38.73
2023-02-14T20:33:09.951Z,30.17
2023-02-14T20:35:44.972Z,33.17
2023-02-14T20:38:23.339Z,32.50
2023-02-14T20:41:01.852Z,33.07
2023-02-14T20:43:48.799Z,35.90
2023-02-14T20:46:24.084Z,69.70
2023-02-14T20:48:59.076Z,59.63
2023-02-14T20:51:35.002Z,48.83
2023-02-14T20:54:10.220Z,38.10
2023-02-14T20:56:46.148Z,35.60
2023-02-14T20:59:27.105Z,34.60
2023-02-14T21:02:02.927Z,31.57
2023-02-14T21:04:38.335Z,31.50
2023-02-14T21:07:13.288Z,30.33
2023-02-14T21:09:55.009Z,34.90
2023-02-14T21:12:30.020Z,31.63
2023-02-14T21:15:07.000Z,29.20
2023-02-14T21:17:42.370Z,34.70
2023-02-14T21:20:19.763Z,33.57
2023-02-14T21:22:56.973Z,34.83
2023-02-14T21:25:32.677Z,33.97
2023-02-14T21:28:09.142Z,36.13
2023-02-14T21:30:47.297Z,33.90
2023-02-14T21:33:22.494Z,33.10
2023-02-14T21:36:00.488Z,33.53
2023-02-14T21:38:38.530Z,34.30
2023-02-14T21:41:22.037Z,35.03
2023-02-14T21:44:01.321Z,33.47
2023-02-14T21:46:41.220Z,35.80
2023-02-14T21:49:39.068Z,35.20
2023-02-14T21:52:17.742Z,32.17
2023-02-14T21:54:56.392Z,32.93
2023-02-14T21:57:31.861Z,33.60
2023-02-14T22:00:10.832Z,35.47
2023-02-14T22:02:46.188Z,35.80
2023-02-14T22:05:21.313Z,30.47
2023-02-14T22:07:56.263Z,31.43
2023-02-14T22:10:31.450Z,32.40
2023-02-14T22:13:06.435Z,33.17
2023-02-14T22:15:41.470Z,32.67
2023-02-14T22:18:16.570Z,39.03
2023-02-14T22:20:54.948Z,41.87
2023-02-14T22:23:31.858Z,34.17
2023-02-14T22:26:19.896Z,35.30
2023-02-14T22:28:57.963Z,36.20
2023-02-14T22:31:36.318Z,32.47
2023-02-14T22:34:17.788Z,34.70
2023-02-14T22:36:54.894Z,31.20
2023-02-14T22:39:29.894Z,29.93
2023-02-14T22:42:06.903Z,33.00
2023-02-14T22:44:41.830Z,33.87
2023-02-14T22:47:17.118Z,34.60
2023-02-14T22:49:52.117Z,32.70
2023-02-14T22:52:27.010Z,33.03
2023-02-14T22:55:01.901Z,33.93
2023-02-14T22:57:36.845Z,34.50
2023-02-14T23:00:12.430Z,34.50
2023-02-14T23:02:47.653Z,34.57
2023-02-14T23:05:22.584Z,37.40
2023-02-14T23:07:57.479Z,36.33
2023-02-14T23:10:33.720Z,33.17
2023-02-14T23:13:28.706Z,34.70
2023-02-14T23:16:22.433Z,33.03
2023-02-14T23:19:15.822Z,34.20
2023-02-14T23:21:56.445Z,32.80
2023-02-14T23:24:31.350Z,33.50
2023-02-14T23:27:07.378Z,32.77
2023-02-14T23:29:42.378Z,35.10
2023-02-14T23:32:17.559Z,32.63
2023-02-14T23:34:52.715Z,32.00
2023-02-14T23:37:27.876Z,37.00
2023-02-14T23:40:03.995Z,32.00
2023-02-14T23:42:38.975Z,33.25
2023-02-14T23:45:32.339Z,34.83
2023-02-14T23:48:07.304Z,35.17
2023-02-14T23:50:42.368Z,35.45
2023-02-14T23:53:17.754Z,34.22
2023-02-14T23:55:52.854Z,31.57
2023-02-14T23:58:28.085Z,33.67
